Meteo Giornale » Osservazioni meteo Danimarca » Odense-Beldringe

ore: 14:20 - Osservazioni Meteo Odense-Beldringe
Lat. 55° 29' N Lon. 10° 20' E Alt. 17 metri s.l.m.

molto_nuvoloso

17 °C

Molto Nuvoloso

Temp. 24 Ore

13 °C

19 °C

Ovest

18.5 Km/h

Dew point 15 °C

Umidità 88 %

Visibilità  10 Km

Il sole sorge alle ore 06:24

Il sole tramonta alle ore 20:13

Data e Ora Cielo e Fenomeni T °C DP °C Um. % Pres. hPa Vis. km Vento km/h
Oggi h: 14:20 molto_nuvoloso Molto Nuvoloso 17 15 88 1013 10 O 18.5
Oggi h: 13:50 molto_nuvoloso Molto Nuvoloso 19 15 77 1013 10 O/SO 22.2
Oggi h: 13:20 molto_nuvoloso Molto Nuvoloso 18 15 82 1013 10 O/SO 20.3
Oggi h: 12:50 coperto_pioggia Pioggia 16 15 93 1013 6 O 16.7
Oggi h: 12:20 molto_nuvoloso Molto Nuvoloso 19 14 72 1012 10 O/SO 18.5
Oggi h: 11:50 molto_nuvoloso Molto Nuvoloso 19 14 72 1012 10 O/SO 16.7
Oggi h: 11:20 molto_nuvoloso Molto Nuvoloso 18 15 82 1012 10 O/SO 16.7
Oggi h: 10:50 nuvoloso Nuvoloso 18 14 77 1012 10 O/SO 18.5
Oggi h: 10:20 molto_nuvoloso Molto Nuvoloso 19 15 77 1012 10 O/SO 20.3
Oggi h: 09:50 nuvoloso Nuvoloso 17 15 88 1011 10 O/SO 20.3
Oggi h: 09:20 poco_nuvoloso Poco Nuvoloso 17 16 93 1011 10 O/SO 14.8
Oggi h: 08:50 poco_nuvoloso Poco Nuvoloso 16 15 93 1011 10 O/SO 14.8
Oggi h: 08:20 poco_nuvoloso Poco Nuvoloso 16 16 100 1011 10 O/SO 11.1
Oggi h: 07:50 nuvoloso Nuvoloso 15 15 100 1011 10 O/SO 13
Oggi h: 07:20 molto_nuvoloso Molto Nuvoloso 14 14 100 1011 6 O/SO 16.7
Oggi h: 06:50 sereno Sereno 14 14 100 1010 9 O 13
Oggi h: 06:20 molto_nuvoloso Molto Nuvoloso 14 14 100 1010 10 O 11.1
Oggi h: 05:50 molto_nuvoloso Molto Nuvoloso 15 14 93 1010 10 O/SO 13
Oggi h: 05:20 nuvoloso Nuvoloso 15 14 93 1010 10 O/SO 14.8
Oggi h: 04:50 molto_nuvoloso Molto Nuvoloso 15 15 100 1010 10 O 11.1
Oggi h: 04:20 molto_nuvoloso Molto Nuvoloso 15 15 100 1010 8 O 16.7
Oggi h: 03:50 coperto Coperto 15 15 100 1009 10 O 14.8
Oggi h: 03:20 molto_nuvoloso Molto Nuvoloso 15 15 100 1009 10 O 9.3
Oggi h: 02:50 poco_nuvoloso Poco Nuvoloso 14 14 100 1009 10 SO 11.1
Oggi h: 02:20 poco_nuvoloso Poco Nuvoloso 14 14 100 1009 10 SO 11.1
Oggi h: 01:50 molto_nuvoloso Molto Nuvoloso 14 14 100 1009 10 SO 7.4
Oggi h: 01:20 molto_nuvoloso Molto Nuvoloso 13 13 100 1009 10 S/SO 7.4
Oggi h: 00:50 poco_nuvoloso Poco Nuvoloso 13 13 100 1008 10 S/SO 9.3
Oggi h: 00:20 poco_nuvoloso Poco Nuvoloso 13 13 100 1008 10 S/SO 7.4
Ieri h: 23:50 sereno Sereno 13 13 100 1008 10 N 5.5
Ieri h: 17:50 molto_nuvoloso Molto Nuvoloso 18 16 88 1007 10 SO 13
Ieri h: 17:20 coperto_pioggia Pioggia 17 16 93 1006 10 S/SO 11.1
Ieri h: 16:50 coperto_pioggia Pioggia 17 15 88 1007 10 S/SO 11.1
Ieri h: 16:20 molto_nuvoloso Molto Nuvoloso 17 15 88 1007 10 S 7.4
Ieri h: 15:50 coperto_pioggia Pioggia 16 15 93 1007 10 SO 9.3
Ieri h: 14:50 molto_nuvoloso Molto Nuvoloso 18 15 82 1006 10 SO 13